createdAt,value
2023-09-05T00:02:07.175Z,2.25
2023-09-05T00:04:34.710Z,1.55
2023-09-05T00:07:02.071Z,1.35
2023-09-05T00:09:29.150Z,1.80
2023-09-05T00:11:56.151Z,1.42
2023-09-05T00:14:23.410Z,1.02
2023-09-05T00:16:50.514Z,1.20
2023-09-05T00:19:17.609Z,0.95
2023-09-05T00:21:44.688Z,2.08
2023-09-05T00:24:25.973Z,2.88
2023-09-05T00:26:53.635Z,3.08
2023-09-05T00:29:20.731Z,1.25
2023-09-05T00:31:48.592Z,1.30
2023-09-05T00:34:16.229Z,1.23
2023-09-05T00:36:43.880Z,1.25
2023-09-05T00:39:11.444Z,1.20
2023-09-05T00:41:39.712Z,1.73
2023-09-05T00:44:06.994Z,2.17
2023-09-05T00:46:35.173Z,4.60
2023-09-05T00:49:04.274Z,2.00
2023-09-05T00:51:32.980Z,2.35
2023-09-05T00:54:02.479Z,2.17
2023-09-05T00:56:29.898Z,1.45
2023-09-05T00:58:57.437Z,4.93
2023-09-05T01:01:24.504Z,1.45
2023-09-05T01:03:52.819Z,1.58
2023-09-05T01:06:29.086Z,4.25
2023-09-05T01:09:28.959Z,2.78
2023-09-05T01:11:57.897Z,2.78
2023-09-05T01:14:24.952Z,1.40
2023-09-05T01:16:51.940Z,2.78
2023-09-05T01:19:19.015Z,1.25
2023-09-05T01:22:44.631Z,1.45
2023-09-05T01:25:14.058Z,2.03
2023-09-05T01:27:41.135Z,1.55
2023-09-05T01:30:09.601Z,1.45
2023-09-05T01:32:36.594Z,2.10
2023-09-05T01:35:03.675Z,1.60
2023-09-05T01:37:30.672Z,1.98
2023-09-05T01:39:57.614Z,1.42
2023-09-05T01:42:24.528Z,1.40
2023-09-05T01:44:51.553Z,1.23
2023-09-05T01:47:18.497Z,1.98
2023-09-05T01:49:45.472Z,2.72
2023-09-05T01:52:12.435Z,1.45
2023-09-05T01:54:40.757Z,2.20
2023-09-05T01:57:07.731Z,1.23
2023-09-05T01:59:34.776Z,1.40
2023-09-05T02:02:01.689Z,2.33
2023-09-05T02:04:28.658Z,1.60
2023-09-05T02:06:55.583Z,1.85
2023-09-05T02:09:22.570Z,1.30
2023-09-05T02:11:49.559Z,1.40
2023-09-05T02:14:16.524Z,1.50
2023-09-05T02:16:43.481Z,1.45
2023-09-05T02:19:10.838Z,1.30
2023-09-05T02:21:37.928Z,1.60
2023-09-05T02:24:05.303Z,1.48
2023-09-05T02:26:32.259Z,1.85
2023-09-05T02:28:59.976Z,1.25
2023-09-05T02:31:26.984Z,2.40
2023-09-05T02:33:54.063Z,1.48
2023-09-05T02:36:22.461Z,1.30
2023-09-05T02:38:49.630Z,1.05
2023-09-05T02:41:18.106Z,1.48
2023-09-05T02:43:48.286Z,1.10
2023-09-05T02:46:16.220Z,1.00
2023-09-05T02:48:44.132Z,1.38
2023-09-05T02:51:12.785Z,1.33
2023-09-05T02:53:40.584Z,1.00
2023-09-05T02:56:07.586Z,1.30
2023-09-05T02:58:35.129Z,1.15
2023-09-05T03:01:04.038Z,2.60
2023-09-05T03:03:32.440Z,1.50
2023-09-05T03:06:08.507Z,2.25
2023-09-05T03:08:36.513Z,1.38
2023-09-05T03:11:03.468Z,1.05
2023-09-05T03:13:30.437Z,1.17
2023-09-05T03:15:57.625Z,2.65
2023-09-05T03:18:26.609Z,1.00
2023-09-05T03:20:54.110Z,1.50
2023-09-05T03:23:24.262Z,3.20
2023-09-05T03:25:53.528Z,1.20
2023-09-05T03:28:21.441Z,1.65
2023-09-05T03:30:48.411Z,1.38
2023-09-05T03:33:15.732Z,0.90
2023-09-05T03:35:44.384Z,1.10
2023-09-05T03:38:11.495Z,1.35
2023-09-05T03:40:38.442Z,1.10
2023-09-05T03:43:05.362Z,0.80
2023-09-05T03:45:32.453Z,1.10
2023-09-05T03:48:02.320Z,1.58
2023-09-05T03:50:30.294Z,2.42
2023-09-05T03:52:57.304Z,1.02
2023-09-05T03:55:24.755Z,1.20
2023-09-05T03:57:51.821Z,0.88
2023-09-05T04:00:18.806Z,1.27
2023-09-05T04:02:46.776Z,1.83
2023-09-05T04:05:14.847Z,3.47
2023-09-05T04:07:43.230Z,0.95
2023-09-05T04:10:10.600Z,1.75
2023-09-05T04:12:38.737Z,1.63
2023-09-05T04:15:06.452Z,1.23
2023-09-05T04:17:33.744Z,0.90
2023-09-05T04:20:00.936Z,1.10
2023-09-05T04:24:58.354Z,0.95
2023-09-05T04:27:25.362Z,2.50
2023-09-05T04:29:56.049Z,0.95
2023-09-05T04:32:30.566Z,3.92
2023-09-05T04:34:59.558Z,0.80
2023-09-05T04:37:26.642Z,1.27
2023-09-05T04:39:53.845Z,0.70
2023-09-05T04:42:20.869Z,1.00
2023-09-05T04:44:48.701Z,1.30
2023-09-05T04:47:35.466Z,4.13
2023-09-05T04:50:02.653Z,19.67
2023-09-05T04:52:30.868Z,10.15
2023-09-05T04:55:01.411Z,14.43
2023-09-05T04:57:29.874Z,4.53
2023-09-05T05:00:01.512Z,10.93
2023-09-05T05:02:29.963Z,10.25
2023-09-05T05:04:57.565Z,17.90
2023-09-05T05:07:25.141Z,32.05
2023-09-05T05:09:52.159Z,32.95
2023-09-05T05:12:19.269Z,34.42
2023-09-05T05:14:46.429Z,22.25
2023-09-05T05:17:14.748Z,25.05
2023-09-05T05:19:42.142Z,25.08
2023-09-05T05:22:09.446Z,15.88
2023-09-05T05:24:36.528Z,19.08
2023-09-05T05:27:03.545Z,21.33
2023-09-05T05:29:33.879Z,14.52
2023-09-05T05:32:02.701Z,9.85
2023-09-05T05:34:31.311Z,13.95
2023-09-05T05:36:58.601Z,16.15
2023-09-05T05:39:27.582Z,4.32
2023-09-05T05:41:55.186Z,7.22
2023-09-05T05:44:22.264Z,9.85
2023-09-05T05:46:49.401Z,9.02
2023-09-05T05:49:16.414Z,5.88
2023-09-05T05:51:43.455Z,4.15
2023-09-05T05:54:11.266Z,2.13
2023-09-05T05:56:38.404Z,3.33
2023-09-05T05:59:05.684Z,1.77
2023-09-05T06:01:33.892Z,7.25
2023-09-05T06:04:01.193Z,4.90
2023-09-05T06:06:28.342Z,3.90
2023-09-05T06:08:55.404Z,2.03
2023-09-05T06:11:22.501Z,3.03
2023-09-05T06:13:53.657Z,12.70
2023-09-05T06:16:22.256Z,15.55
2023-09-05T06:18:49.464Z,8.32
2023-09-05T06:21:16.585Z,4.22
2023-09-05T06:23:43.610Z,1.63
2023-09-05T06:26:10.628Z,3.17
2023-09-05T06:28:37.659Z,1.48
2023-09-05T06:31:06.218Z,8.45
2023-09-05T06:33:33.594Z,10.30
2023-09-05T06:36:06.636Z,5.38
2023-09-05T06:38:34.959Z,8.82
2023-09-05T06:41:09.320Z,3.70
2023-09-05T06:43:36.448Z,2.17
2023-09-05T06:46:08.731Z,3.05
2023-09-05T06:48:36.956Z,2.25
2023-09-05T06:51:04.172Z,3.72
2023-09-05T06:53:32.965Z,3.67
2023-09-05T06:56:00.026Z,3.55
2023-09-05T06:58:28.266Z,2.47
2023-09-05T07:00:56.222Z,3.42
2023-09-05T07:03:24.982Z,1.45
2023-09-05T07:06:05.708Z,3.47
2023-09-05T07:08:34.225Z,3.58
2023-09-05T07:11:01.617Z,3.08
2023-09-05T07:13:29.055Z,1.10
2023-09-05T07:15:58.033Z,3.45
2023-09-05T07:18:26.086Z,3.67
2023-09-05T07:20:53.620Z,2.15
2023-09-05T07:23:20.704Z,1.63
2023-09-05T07:25:47.995Z,5.72
2023-09-05T07:28:15.206Z,1.75
2023-09-05T07:30:42.755Z,2.15
2023-09-05T07:33:10.312Z,1.73
2023-09-05T07:35:37.975Z,1.80
2023-09-05T07:38:05.590Z,2.40
2023-09-05T07:40:32.604Z,1.90
2023-09-05T07:43:01.976Z,4.55
2023-09-05T07:45:29.502Z,3.30
2023-09-05T07:47:56.711Z,2.70
2023-09-05T07:50:24.214Z,6.60
2023-09-05T07:52:51.484Z,21.50
2023-09-05T07:55:19.357Z,4.00
2023-09-05T07:57:46.446Z,10.07
2023-09-05T08:00:17.315Z,4.47
2023-09-05T08:05:13.522Z,3.78
2023-09-05T08:07:40.890Z,6.65
2023-09-05T08:10:08.971Z,7.78
2023-09-05T08:12:36.077Z,4.72
2023-09-05T08:15:03.317Z,3.45
2023-09-05T08:17:32.015Z,14.35
2023-09-05T08:20:00.084Z,5.28
2023-09-05T08:22:27.319Z,7.90
2023-09-05T08:24:54.399Z,7.32
2023-09-05T08:27:21.524Z,8.60
2023-09-05T08:29:49.041Z,22.27
2023-09-05T08:32:16.368Z,13.18
2023-09-05T08:34:43.604Z,23.52
2023-09-05T08:37:10.659Z,23.85
2023-09-05T08:39:38.437Z,27.00
2023-09-05T08:42:09.592Z,87.55
2023-09-05T08:44:43.200Z,35.08
2023-09-05T08:47:10.681Z,23.52
2023-09-05T08:49:39.091Z,40.70
2023-09-05T08:52:08.106Z,44.63
2023-09-05T08:54:35.309Z,26.08
2023-09-05T08:57:04.856Z,28.95
2023-09-05T08:59:33.556Z,25.25
2023-09-05T09:02:01.970Z,30.65
2023-09-05T09:04:29.525Z,34.88
2023-09-05T09:06:57.933Z,22.90
2023-09-05T09:09:36.673Z,38.75
2023-09-05T09:12:04.455Z,30.95
2023-09-05T09:14:34.052Z,27.73
2023-09-05T09:17:06.224Z,20.38
2023-09-05T09:19:34.237Z,16.80
2023-09-05T09:22:04.525Z,18.33
2023-09-05T09:24:36.263Z,26.27
2023-09-05T09:27:05.816Z,18.70
2023-09-05T09:29:34.403Z,27.10
2023-09-05T09:32:10.846Z,22.02
2023-09-05T09:34:39.424Z,22.80
2023-09-05T09:37:06.498Z,13.00
2023-09-05T09:39:34.063Z,20.20
2023-09-05T09:42:02.517Z,17.83
2023-09-05T09:44:32.160Z,15.90
2023-09-05T09:47:01.071Z,16.98
2023-09-05T09:49:30.094Z,11.75
2023-09-05T09:52:05.785Z,12.25
2023-09-05T09:54:40.311Z,12.48
2023-09-05T09:57:10.179Z,11.93
2023-09-05T09:59:43.486Z,19.30
2023-09-05T10:02:15.090Z,13.45
2023-09-05T10:04:44.691Z,12.70
2023-09-05T10:07:19.254Z,15.90
2023-09-05T10:09:49.028Z,9.77
2023-09-05T10:12:22.864Z,11.88
2023-09-05T10:14:50.875Z,13.55
2023-09-05T10:17:21.480Z,9.82
2023-09-05T10:19:51.349Z,15.85
2023-09-05T10:22:18.666Z,9.32
2023-09-05T10:24:47.428Z,5.78
2023-09-05T10:27:14.766Z,11.75
2023-09-05T10:29:49.309Z,9.82
2023-09-05T10:32:19.857Z,10.45
2023-09-05T10:34:50.209Z,8.52
2023-09-05T10:37:20.090Z,11.43
2023-09-05T10:39:48.815Z,11.32
2023-09-05T10:42:17.497Z,15.50
2023-09-05T10:44:47.518Z,8.15
2023-09-05T10:47:34.865Z,7.75
2023-09-05T10:50:06.001Z,5.13
2023-09-05T10:52:34.122Z,11.60
2023-09-05T10:55:27.183Z,15.55
2023-09-05T10:57:54.229Z,8.45
2023-09-05T11:00:22.425Z,12.32
2023-09-05T11:02:50.159Z,7.25
2023-09-05T11:05:20.969Z,10.50
2023-09-05T11:07:52.098Z,11.18
2023-09-05T11:10:28.830Z,44.70
2023-09-05T11:12:56.442Z,15.73
2023-09-05T11:15:34.361Z,14.20
2023-09-05T11:18:08.128Z,12.27
2023-09-05T11:20:42.013Z,12.75
2023-09-05T11:23:15.717Z,5.90
2023-09-05T11:25:55.461Z,7.75
2023-09-05T11:28:24.511Z,10.52
2023-09-05T11:30:58.925Z,13.32
2023-09-05T11:33:28.157Z,8.80
2023-09-05T11:35:55.602Z,15.20
2023-09-05T11:38:24.845Z,14.05
2023-09-05T11:40:55.801Z,10.80
2023-09-05T11:43:24.361Z,13.00
2023-09-05T11:45:57.268Z,7.05
2023-09-05T11:48:30.576Z,6.00
2023-09-05T11:50:58.367Z,7.82
2023-09-05T11:53:25.955Z,4.47
2023-09-05T11:55:53.519Z,2.00
2023-09-05T11:58:20.816Z,9.07
2023-09-05T12:00:52.550Z,35.03
2023-09-05T12:03:20.072Z,7.55
2023-09-05T12:05:53.559Z,8.52
2023-09-05T12:08:35.411Z,11.38
2023-09-05T12:11:05.200Z,17.85
2023-09-05T12:13:42.154Z,14.40
2023-09-05T12:16:10.665Z,16.77
2023-09-05T12:18:42.418Z,16.00
2023-09-05T12:21:12.200Z,15.93
2023-09-05T12:23:39.260Z,13.05
2023-09-05T12:26:06.367Z,18.60
2023-09-05T12:28:34.283Z,8.95
2023-09-05T12:31:08.088Z,24.83
2023-09-05T12:33:35.328Z,23.63
2023-09-05T12:36:02.584Z,15.15
2023-09-05T12:38:32.953Z,20.58
2023-09-05T12:41:00.100Z,22.25
2023-09-05T12:43:27.430Z,9.10
2023-09-05T12:45:54.648Z,15.60
2023-09-05T12:48:21.835Z,17.98
2023-09-05T12:50:51.396Z,18.77
2023-09-05T12:53:21.090Z,31.80
2023-09-05T12:55:48.837Z,22.23
2023-09-05T12:58:16.004Z,9.75
2023-09-05T13:00:43.573Z,12.43
2023-09-05T13:03:13.188Z,13.18
2023-09-05T13:05:41.266Z,7.03
2023-09-05T13:08:11.315Z,10.40
2023-09-05T13:10:38.796Z,11.27
2023-09-05T13:13:08.552Z,14.40
2023-09-05T13:15:37.123Z,31.48
2023-09-05T13:18:04.456Z,20.73
2023-09-05T13:20:32.651Z,34.03
2023-09-05T13:23:00.649Z,15.15
2023-09-05T13:25:30.809Z,9.73
2023-09-05T13:27:58.434Z,27.83
2023-09-05T13:30:26.051Z,21.52
2023-09-05T13:32:54.013Z,9.95
2023-09-05T13:35:21.245Z,18.95
2023-09-05T13:37:48.376Z,5.72
2023-09-05T13:40:15.542Z,22.85
2023-09-05T13:42:42.804Z,7.38
2023-09-05T13:45:10.111Z,33.95
2023-09-05T13:47:39.153Z,16.17
2023-09-05T13:50:08.130Z,23.52
2023-09-05T13:52:35.219Z,31.58
2023-09-05T13:55:02.398Z,30.75
2023-09-05T13:57:29.815Z,14.00
2023-09-05T13:59:56.925Z,12.23
2023-09-05T14:02:24.090Z,11.70
2023-09-05T14:04:52.363Z,9.55
2023-09-05T14:07:19.700Z,7.95
2023-09-05T14:09:46.753Z,11.05
2023-09-05T14:12:19.756Z,4.13
2023-09-05T14:14:46.978Z,38.47
2023-09-05T14:17:15.575Z,22.77
2023-09-05T14:19:42.723Z,21.15
2023-09-05T14:22:10.239Z,16.10
2023-09-05T14:24:37.497Z,4.55
2023-09-05T14:27:05.997Z,5.88
2023-09-05T14:29:34.324Z,8.63
2023-09-05T14:32:01.595Z,6.32
2023-09-05T14:34:28.899Z,10.60
2023-09-05T14:36:56.185Z,6.75
2023-09-05T14:39:23.412Z,9.02
2023-09-05T14:41:50.634Z,6.43
2023-09-05T14:44:18.646Z,5.05
2023-09-05T14:46:45.889Z,12.63
2023-09-05T14:49:13.827Z,10.13
2023-09-05T14:51:42.922Z,9.77
2023-09-05T14:54:10.219Z,15.73
2023-09-05T14:56:37.973Z,45.78
2023-09-05T14:59:05.136Z,18.73
2023-09-05T15:01:32.245Z,14.25
2023-09-05T15:03:59.430Z,6.85
2023-09-05T15:06:26.512Z,15.95
2023-09-05T15:08:53.609Z,21.30
2023-09-05T15:11:20.903Z,19.23
2023-09-05T15:13:47.935Z,7.68
2023-09-05T15:16:15.193Z,10.25
2023-09-05T15:18:42.572Z,12.93
2023-09-05T15:21:09.799Z,13.68
2023-09-05T15:23:36.960Z,10.30
2023-09-05T15:26:06.470Z,10.98
2023-09-05T15:28:33.799Z,12.77
2023-09-05T15:31:01.183Z,19.65
2023-09-05T15:33:28.654Z,28.70
2023-09-05T15:36:00.632Z,13.00
2023-09-05T15:38:28.662Z,12.60
2023-09-05T15:40:56.373Z,8.73
2023-09-05T15:43:23.457Z,7.47
2023-09-05T15:45:52.681Z,13.43
2023-09-05T15:48:19.869Z,4.50
2023-09-05T15:50:47.331Z,13.38
2023-09-05T15:53:17.740Z,6.10
2023-09-05T15:55:45.074Z,13.02
2023-09-05T15:58:12.278Z,8.35
2023-09-05T16:00:39.412Z,9.23
2023-09-05T16:03:06.821Z,16.27
2023-09-05T16:05:34.137Z,9.48
2023-09-05T16:08:01.582Z,18.77
2023-09-05T16:10:28.980Z,15.35
2023-09-05T16:12:56.274Z,7.75
2023-09-05T16:15:23.942Z,21.48
2023-09-05T16:17:51.076Z,9.15
2023-09-05T16:20:18.230Z,22.67
2023-09-05T16:22:48.663Z,33.55
2023-09-05T16:25:16.669Z,22.33
2023-09-05T16:27:44.081Z,24.88
2023-09-05T16:30:11.822Z,22.38
2023-09-05T16:32:38.966Z,19.02
2023-09-05T16:35:06.619Z,16.60
2023-09-05T16:37:33.711Z,15.07
2023-09-05T16:40:00.874Z,14.30
2023-09-05T16:42:28.241Z,11.73
2023-09-05T16:44:55.461Z,22.45
2023-09-05T16:47:23.019Z,16.60
2023-09-05T16:49:50.752Z,13.55
2023-09-05T16:52:18.136Z,11.13
2023-09-05T16:54:45.729Z,18.60
2023-09-05T16:57:14.820Z,18.40
2023-09-05T16:59:42.740Z,18.92
2023-09-05T17:02:10.017Z,24.27
2023-09-05T17:04:38.733Z,36.30
2023-09-05T17:07:07.251Z,30.20
2023-09-05T17:09:34.928Z,30.17
2023-09-05T17:12:02.345Z,39.15
2023-09-05T17:14:30.983Z,38.75
2023-09-05T17:16:58.293Z,45.50
2023-09-05T17:19:26.037Z,40.22
2023-09-05T17:21:54.635Z,33.17
2023-09-05T17:24:21.859Z,18.88
2023-09-05T17:26:49.283Z,28.50
2023-09-05T17:29:17.997Z,17.27
2023-09-05T17:31:45.302Z,19.15
2023-09-05T17:34:16.622Z,13.57
2023-09-05T17:36:43.944Z,12.73
2023-09-05T17:39:12.034Z,13.95
2023-09-05T17:41:40.619Z,10.55
2023-09-05T17:44:07.973Z,11.52
2023-09-05T17:46:35.541Z,8.52
2023-09-05T17:49:03.403Z,19.85
2023-09-05T17:51:30.978Z,9.13
2023-09-05T17:53:58.337Z,9.85
2023-09-05T17:56:29.657Z,16.38
2023-09-05T17:58:57.167Z,13.88
2023-09-05T18:01:25.763Z,15.27
2023-09-05T18:03:55.625Z,25.08
2023-09-05T18:06:23.537Z,28.70
2023-09-05T18:08:53.647Z,30.52
2023-09-05T18:11:24.255Z,19.43
2023-09-05T18:13:51.920Z,26.92
2023-09-05T18:16:20.063Z,24.73
2023-09-05T18:18:49.982Z,38.35
2023-09-05T18:21:19.964Z,25.83
2023-09-05T18:23:47.434Z,33.17
2023-09-05T18:26:15.862Z,31.50
2023-09-05T18:28:46.486Z,23.67
2023-09-05T18:31:18.445Z,29.30
2023-09-05T18:33:47.287Z,34.20
2023-09-05T18:36:16.366Z,21.52
2023-09-05T18:38:45.814Z,25.08
2023-09-05T18:41:21.030Z,23.83
2023-09-05T18:43:51.140Z,20.00
2023-09-05T18:46:20.543Z,24.70
2023-09-05T18:48:48.786Z,45.33
2023-09-05T18:51:19.339Z,21.45
2023-09-05T18:53:47.684Z,26.67
2023-09-05T18:56:18.706Z,21.73
2023-09-05T18:58:46.873Z,25.88
2023-09-05T19:01:20.406Z,21.35
2023-09-05T19:03:48.437Z,34.95
2023-09-05T19:06:16.094Z,21.38
2023-09-05T19:08:45.731Z,21.10
2023-09-05T19:11:16.837Z,17.48
2023-09-05T19:13:44.807Z,19.48
2023-09-05T19:16:12.654Z,16.20
2023-09-05T19:18:41.221Z,19.90
2023-09-05T19:21:08.510Z,16.48
2023-09-05T19:23:36.077Z,9.95
2023-09-05T19:26:06.580Z,10.95
2023-09-05T19:28:34.387Z,11.85
2023-09-05T19:31:05.161Z,10.70
2023-09-05T19:36:03.218Z,12.88
2023-09-05T19:38:32.792Z,16.63
2023-09-05T19:41:11.755Z,10.18
2023-09-05T19:43:41.528Z,28.88
2023-09-05T19:48:39.153Z,20.73
2023-09-05T19:51:07.738Z,32.55
2023-09-05T19:53:35.433Z,15.88
2023-09-05T19:56:08.926Z,14.10
2023-09-05T19:58:39.052Z,12.10
2023-09-05T20:01:07.871Z,14.10
2023-09-05T20:03:36.941Z,16.15
2023-09-05T20:08:43.526Z,9.30
2023-09-05T20:11:11.650Z,8.85
2023-09-05T20:13:39.826Z,6.95
2023-09-05T20:16:09.634Z,16.50
2023-09-05T20:18:37.502Z,11.55
2023-09-05T20:21:07.018Z,11.27
2023-09-05T20:23:35.582Z,8.95
2023-09-05T20:26:04.333Z,7.70
2023-09-05T20:28:33.277Z,6.10
2023-09-05T20:31:03.022Z,4.15
2023-09-05T20:33:36.136Z,10.00
2023-09-05T20:36:06.934Z,6.60
2023-09-05T20:38:36.061Z,6.90
2023-09-05T20:41:05.508Z,5.32
2023-09-05T20:43:35.112Z,7.72
2023-09-05T20:46:02.736Z,6.95
2023-09-05T20:48:32.887Z,7.30
2023-09-05T20:51:02.228Z,5.95
2023-09-05T20:53:30.216Z,4.63
2023-09-05T20:56:00.860Z,6.03
2023-09-05T20:58:29.290Z,4.25
2023-09-05T21:00:59.024Z,5.85
2023-09-05T21:03:27.002Z,7.65
2023-09-05T21:05:54.841Z,17.20
2023-09-05T21:08:28.254Z,7.70
2023-09-05T21:10:56.461Z,7.10
2023-09-05T21:13:25.686Z,13.60
2023-09-05T21:16:03.932Z,9.32
2023-09-05T21:18:32.578Z,7.78
2023-09-05T21:21:00.622Z,10.60
2023-09-05T21:23:28.435Z,7.68
2023-09-05T21:25:56.078Z,9.02
2023-09-05T21:28:23.521Z,13.57
2023-09-05T21:30:52.519Z,7.00
2023-09-05T21:33:20.980Z,6.57
2023-09-05T21:35:52.231Z,9.52
2023-09-05T21:38:21.083Z,6.22
2023-09-05T21:40:50.463Z,3.85
2023-09-05T21:43:18.761Z,7.68
2023-09-05T21:45:47.798Z,6.43
2023-09-05T21:48:15.532Z,4.65
2023-09-05T21:50:43.517Z,7.07
2023-09-05T21:53:10.894Z,6.80
2023-09-05T21:55:38.330Z,5.65
2023-09-05T21:58:05.907Z,5.60
2023-09-05T22:00:34.678Z,4.82
2023-09-05T22:03:04.067Z,3.88
2023-09-05T22:05:32.334Z,4.53
2023-09-05T22:08:02.348Z,3.85
2023-09-05T22:10:29.854Z,4.45
2023-09-05T22:12:57.154Z,4.38
2023-09-05T22:15:24.491Z,3.92
2023-09-05T22:17:54.891Z,6.13
2023-09-05T22:20:24.336Z,3.50
2023-09-05T22:22:51.925Z,3.25
2023-09-05T22:25:19.876Z,4.32
2023-09-05T22:27:47.858Z,3.47
2023-09-05T22:30:17.292Z,4.45
2023-09-05T22:32:45.080Z,3.92
2023-09-05T22:35:12.869Z,4.22
2023-09-05T22:37:40.287Z,13.05
2023-09-05T22:40:26.459Z,3.60
2023-09-05T22:42:53.621Z,4.38
2023-09-05T22:45:22.393Z,3.75
2023-09-05T22:47:51.346Z,3.42
2023-09-05T22:50:18.649Z,4.85
2023-09-05T22:52:45.971Z,3.67
2023-09-05T22:55:13.894Z,3.38
2023-09-05T22:57:40.981Z,2.67
2023-09-05T23:00:17.859Z,3.22
2023-09-05T23:02:45.248Z,3.05
2023-09-05T23:05:13.932Z,3.30
2023-09-05T23:07:45.319Z,3.22
2023-09-05T23:10:12.892Z,4.20
2023-09-05T23:12:39.875Z,4.38
2023-09-05T23:15:07.612Z,3.90
2023-09-05T23:17:34.981Z,2.75
2023-09-05T23:20:02.427Z,2.40
2023-09-05T23:22:29.916Z,2.35
2023-09-05T23:24:57.098Z,3.45
2023-09-05T23:27:25.246Z,2.25
2023-09-05T23:29:52.334Z,3.28
2023-09-05T23:32:19.356Z,3.08
2023-09-05T23:34:46.342Z,2.30
2023-09-05T23:37:13.676Z,2.85
2023-09-05T23:39:42.361Z,2.40
2023-09-05T23:42:09.593Z,2.20
2023-09-05T23:44:36.767Z,2.42
2023-09-05T23:47:07.841Z,3.33
2023-09-05T23:49:37.742Z,3.08
2023-09-05T23:52:05.646Z,2.22
2023-09-05T23:54:32.946Z,3.10
2023-09-05T23:57:00.103Z,2.78
2023-09-05T23:59:27.352Z,2.75
